Time;durP1;ratioP1;P1;durP2;ratioP2;P2;SDS_P1;SDS_P2;PMS_P1;PMS_P2;Temp;Humidity;BMP_temperature;BMP_pressure;BME280_temperature;BME280_humidity;BME280_pressure;Samples;Min_cycle;Max_cycle;Signal;HPM_P1;HPM_P2
2022/01/07 00:00:32;;;;;;;8.48;2.35;;;;;;;-0.98;71.48;101020.81;5589899;31;33998;-67
2022/01/07 00:03:46;;;;;;;6.00;2.22;;;;;;;-1.01;71.82;101031.38;5589899;31;34646;-67
2022/01/07 00:06:48;;;;;;;4.68;2.10;;;;;;;-0.98;71.25;101018.22;5589117;31;34288;-67
2022/01/07 00:09:51;;;;;;;4.82;2.10;;;;;;;-1.12;72.05;101026.72;5589810;31;34362;-67
2022/01/07 00:12:54;;;;;;;5.57;2.25;;;;;;;-1.06;71.48;101026.41;5589734;31;34702;-67
2022/01/07 00:15:57;;;;;;;4.80;2.17;;;;;;;-1.03;70.83;101043.63;5589890;31;34184;-67
2022/01/07 00:18:59;;;;;;;5.95;2.20;;;;;;;-1.07;71.45;101055.97;5589636;31;34142;-67
2022/01/07 00:22:02;;;;;;;7.90;2.30;;;;;;;-1.20;71.95;101056.66;5589750;31;34611;-68
2022/01/07 00:25:07;;;;;;;5.45;2.30;;;;;;;-1.20;72.47;101054.88;5589767;31;34025;-67
2022/01/07 00:28:10;;;;;;;5.53;2.40;;;;;;;-1.24;72.37;101063.78;5589627;31;34255;-68
2022/01/07 00:31:13;;;;;;;9.52;2.87;;;;;;;-1.25;72.72;101079.47;5589753;31;34050;-68
2022/01/07 00:34:16;;;;;;;5.57;2.70;;;;;;;-1.26;72.89;101080.41;5589719;31;34251;-67
2022/01/07 00:37:19;;;;;;;6.62;2.30;;;;;;;-1.34;73.92;101088.56;5589473;31;33915;-68
2022/01/07 00:40:24;;;;;;;5.32;2.35;;;;;;;-1.31;73.84;101083.25;5589532;31;33963;-67
2022/01/07 00:43:26;;;;;;;6.12;2.37;;;;;;;-1.44;74.28;101072.56;5589170;31;33935;-66
2022/01/07 00:46:30;;;;;;;4.30;2.10;;;;;;;-1.42;74.85;101086.34;5589413;31;33986;-65
2022/01/07 00:49:33;;;;;;;6.10;2.45;;;;;;;-1.46;75.37;101089.19;5588818;31;34215;-67
2022/01/07 00:52:36;;;;;;;8.40;2.90;;;;;;;-1.61;76.01;101101.16;5589439;31;34581;-66
2022/01/07 00:55:39;;;;;;;7.32;2.90;;;;;;;-1.60;76.52;101097.66;5588488;31;33667;-66
2022/01/07 00:58:42;;;;;;;8.02;2.70;;;;;;;-1.60;76.98;101091.59;5589458;31;33269;-66
2022/01/07 01:01:45;;;;;;;7.60;2.95;;;;;;;-1.58;76.66;101087.16;5588570;31;33872;-66
2022/01/07 01:05:10;;;;;;;10.52;3.15;;;;;;;-1.66;77.32;101089.28;5589359;31;34641;-66
2022/01/07 01:08:13;;;;;;;7.60;3.05;;;;;;;-1.80;78.40;101083.00;5589143;31;33894;-66
2022/01/07 01:11:15;;;;;;;9.25;3.20;;;;;;;-1.77;78.75;101087.19;5589222;31;35126;-67
2022/01/07 01:14:18;;;;;;;7.82;3.35;;;;;;;-1.86;79.21;101087.63;5589241;31;34318;-66
2022/01/07 01:17:21;;;;;;;8.73;3.65;;;;;;;-2.01;80.00;101085.75;5589073;31;34815;-66
2022/01/07 01:20:25;;;;;;;9.65;3.65;;;;;;;-2.06;80.65;101083.34;5588982;31;34272;-67
2022/01/07 01:23:29;;;;;;;9.40;4.05;;;;;;;-2.05;80.78;101072.03;5588998;31;33940;-66
2022/01/07 01:26:31;;;;;;;11.20;3.85;;;;;;;-2.04;80.97;101059.91;5588749;31;33865;-67
2022/01/07 01:29:35;;;;;;;8.27;3.37;;;;;;;-2.15;81.05;101055.19;5587988;31;34537;-66
2022/01/07 01:32:38;;;;;;;7.07;3.30;;;;;;;-2.20;81.44;101042.41;5588807;31;33958;-66
2022/01/07 01:35:41;;;;;;;7.37;3.33;;;;;;;-2.12;81.38;101043.78;5588880;31;33902;-67
2022/01/07 01:38:44;;;;;;;9.45;3.30;;;;;;;-2.18;81.99;101052.75;5588571;31;34675;-67
2022/01/07 01:41:47;;;;;;;8.75;3.83;;;;;;;-2.22;82.05;101062.41;5588624;31;33900;-67
2022/01/07 01:44:49;;;;;;;9.50;3.60;;;;;;;-2.23;82.14;101065.91;5588719;31;33882;-67
2022/01/07 01:47:53;;;;;;;9.38;3.90;;;;;;;-2.27;82.12;101071.31;5588541;31;34589;-67
2022/01/07 01:50:56;;;;;;;9.00;3.67;;;;;;;-2.34;82.85;101057.78;5588478;31;35361;-67
2022/01/07 01:54:00;;;;;;;10.73;3.85;;;;;;;-2.36;83.32;101063.94;5588410;31;34021;-67
2022/01/07 01:57:02;;;;;;;11.25;3.97;;;;;;;-2.46;83.77;101081.69;5588437;31;34087;-68
2022/01/07 02:00:07;;;;;;;9.88;4.30;;;;;;;-2.45;83.80;101082.56;5588430;31;34242;-67
2022/01/07 02:03:13;;;;;;;9.60;3.35;;;;;;;-2.42;83.81;101091.03;5588223;31;33929;-67
2022/01/07 02:06:16;;;;;;;9.30;3.40;;;;;;;-2.40;83.47;101089.22;5588293;31;34147;-67
2022/01/07 02:09:24;;;;;;;8.57;3.80;;;;;;;-2.45;83.92;101092.94;5590255;31;34472;-67
2022/01/07 02:12:27;;;;;;;8.52;3.30;;;;;;;-2.53;84.04;101090.69;5590975;31;34624;-68
2022/01/07 02:15:30;;;;;;;9.30;3.50;;;;;;;-2.53;84.40;101090.69;5590795;31;34577;-65
2022/01/07 02:18:34;;;;;;;8.90;3.53;;;;;;;-2.50;84.22;101106.12;5590739;31;34698;-68
2022/01/07 02:21:37;;;;;;;6.65;2.90;;;;;;;-2.61;84.44;101102.34;5589908;31;34252;-67
2022/01/07 02:24:40;;;;;;;9.10;3.75;;;;;;;-2.45;83.19;101101.59;5590797;31;34610;-66
2022/01/07 02:27:44;;;;;;;10.32;4.00;;;;;;;-2.46;83.07;101106.84;5590986;31;33988;-65
2022/01/07 02:30:47;;;;;;;7.85;3.30;;;;;;;-2.38;82.43;101110.81;5590609;31;34087;-65
2022/01/07 02:33:50;;;;;;;7.95;3.08;;;;;;;-2.45;82.39;101100.75;5586210;31;142938;-65
2022/01/07 02:36:52;;;;;;;7.75;2.67;;;;;;;-2.45;82.28;101108.53;5590680;31;34351;-65
2022/01/07 02:39:55;;;;;;;5.75;2.90;;;;;;;-2.49;81.81;101112.19;5590558;31;34134;-66
2022/01/07 02:42:58;;;;;;;10.05;3.50;;;;;;;-2.56;81.89;101115.94;5590674;31;34589;-65
2022/01/07 02:46:01;;;;;;;9.75;3.00;;;;;;;-2.55;82.44;101108.09;5590722;31;34008;-67
2022/01/07 02:49:14;;;;;;;11.30;3.72;;;;;;;-2.49;81.64;101099.19;5590499;31;34649;-66
2022/01/07 02:52:17;;;;;;;6.78;2.78;;;;;;;-2.54;81.36;101111.53;5589646;31;34344;-66
2022/01/07 02:55:22;;;;;;;12.93;2.92;;;;;;;-2.72;81.95;101116.62;5590570;31;34601;-65
2022/01/07 02:58:25;;;;;;;5.18;2.50;;;;;;;-2.89;82.99;101108.69;5590373;31;34095;-65
2022/01/07 03:01:28;;;;;;;7.62;2.65;;;;;;;-2.99;83.88;101106.53;5589810;31;33992;-65
2022/01/07 03:04:30;;;;;;;6.75;2.72;;;;;;;-2.90;83.64;101112.19;5589625;31;33915;-66
2022/01/07 03:07:34;;;;;;;5.70;2.40;;;;;;;-2.85;83.00;101115.44;5590385;31;34519;-67
2022/01/07 03:10:37;;;;;;;5.50;2.85;;;;;;;-3.12;84.12;101114.84;5589511;31;33990;-65
2022/01/07 03:13:40;;;;;;;8.98;2.90;;;;;;;-3.27;85.39;101114.63;5590338;31;33963;-66
2022/01/07 03:16:43;;;;;;;5.97;2.60;;;;;;;-3.28;85.57;101116.38;5589461;31;33876;-65
2022/01/07 03:19:46;;;;;;;5.70;2.17;;;;;;;-3.39;85.55;101122.94;5589971;31;34644;-66
2022/01/07 03:22:49;;;;;;;9.85;2.78;;;;;;;-3.45;85.78;101123.16;5590271;31;34550;-65
2022/01/07 03:25:53;;;;;;;7.53;2.87;;;;;;;-3.48;86.36;101126.72;5590150;31;34633;-66
2022/01/07 03:28:55;;;;;;;5.97;2.53;;;;;;;-3.33;85.89;101130.44;5590351;31;34221;-66
2022/01/07 03:31:58;;;;;;;5.97;2.75;;;;;;;-3.40;85.87;101132.47;5589362;31;34627;-66
2022/01/07 03:35:01;;;;;;;4.45;2.37;;;;;;;-3.43;85.30;101134.31;5590495;31;33988;-68
2022/01/07 03:38:04;;;;;;;6.57;2.60;;;;;;;-3.48;85.86;101138.81;5589824;31;33950;-66
2022/01/07 03:41:06;;;;;;;5.75;2.20;;;;;;;-3.24;85.08;101140.44;5590115;31;33868;-66
2022/01/07 03:44:09;;;;;;;10.13;2.40;;;;;;;-2.95;84.00;101142.69;5590394;31;33959;-66
2022/01/07 03:47:12;;;;;;;6.80;2.67;;;;;;;-3.02;84.00;101138.69;5589187;31;35147;-66
2022/01/07 03:50:17;;;;;;;7.37;2.58;;;;;;;-2.90;83.49;101147.69;5589856;31;33910;-66
2022/01/07 03:53:22;;;;;;;6.95;2.70;;;;;;;-2.92;83.15;101145.19;5589819;31;34298;-66
2022/01/07 03:56:25;;;;;;;6.43;2.90;;;;;;;-2.98;83.59;101149.78;5589919;31;34745;-66
2022/01/07 03:59:29;;;;;;;8.48;2.90;;;;;;;-2.84;82.69;101152.63;5589948;31;34596;-66
2022/01/07 04:02:32;;;;;;;6.93;2.90;;;;;;;-2.90;82.77;101151.13;5589890;31;34625;-66
2022/01/07 04:05:35;;;;;;;9.38;2.65;;;;;;;-3.04;83.62;101144.81;5589990;31;35291;-66
2022/01/07 04:08:37;;;;;;;12.43;3.05;;;;;;;-3.00;83.62;101151.59;5589883;31;34440;-67
2022/01/07 04:11:40;;;;;;;8.55;3.20;;;;;;;-3.03;82.97;101149.13;5589748;31;33970;-65
2022/01/07 04:14:43;;;;;;;9.10;3.30;;;;;;;-3.01;83.15;101147.31;5589848;31;34601;-68
2022/01/07 04:17:48;;;;;;;8.63;3.70;;;;;;;-3.08;83.48;101152.75;5589713;31;33976;-68
2022/01/07 04:20:50;;;;;;;7.65;3.35;;;;;;;-3.06;83.38;101157.88;5589881;31;33908;-68
2022/01/07 04:23:53;;;;;;;6.30;3.00;;;;;;;-2.75;81.56;101149.66;5589553;31;34870;-65
2022/01/07 04:26:56;;;;;;;8.38;3.30;;;;;;;-2.73;81.27;101148.69;5588861;31;34016;-66
2022/01/07 04:29:59;;;;;;;11.55;3.40;;;;;;;-2.99;82.40;101161.06;5589200;31;33961;-66
2022/01/07 04:33:03;;;;;;;6.18;3.30;;;;;;;-3.15;83.10;101155.66;5575547;31;33507;-66
2022/01/07 04:36:07;;;;;;;7.47;3.35;;;;;;;-3.34;84.22;101158.13;5589545;31;33961;-66
2022/01/07 04:39:10;;;;;;;7.15;3.35;;;;;;;-3.54;84.74;101155.50;5588668;31;34081;-66
2022/01/07 04:42:13;;;;;;;8.07;3.80;;;;;;;-3.64;86.21;101151.56;5589460;31;35186;-66
2022/01/07 04:45:15;;;;;;;13.55;3.58;;;;;;;-3.47;84.92;101156.09;5589429;31;34575;-67
2022/01/07 04:48:18;;;;;;;7.18;3.20;;;;;;;-3.57;85.86;101156.44;5589197;31;34279;-68
2022/01/07 04:51:21;;;;;;;7.53;3.62;;;;;;;-3.64;86.48;101164.53;5589299;31;34035;-66
2022/01/07 04:54:24;;;;;;;7.57;3.58;;;;;;;-3.68;86.55;101165.56;5589182;31;34911;-66
2022/01/07 04:57:27;;;;;;;7.97;3.65;;;;;;;-3.22;84.59;101178.41;5589222;31;34604;-66
2022/01/07 05:00:30;;;;;;;7.03;3.22;;;;;;;-3.29;83.77;101163.16;5589304;31;34296;-66
2022/01/07 05:03:33;;;;;;;8.43;3.58;;;;;;;-3.31;84.48;101157.19;5588557;31;34578;-68
2022/01/07 05:06:45;;;;;;;7.35;3.67;;;;;;;-3.52;86.12;101164.03;5588822;31;33964;-68
2022/01/07 05:09:47;;;;;;;8.77;4.00;;;;;;;-3.68;85.70;101170.75;5589245;31;33953;-68
2022/01/07 05:12:51;;;;;;;6.53;3.47;;;;;;;-3.86;86.26;101169.66;5589506;31;33524;-68
2022/01/07 05:15:53;;;;;;;10.80;3.70;;;;;;;-4.00;87.55;101167.59;5589095;31;34574;-68
2022/01/07 05:18:57;;;;;;;10.35;3.90;;;;;;;-4.00;88.68;101175.38;5589012;31;34177;-68
2022/01/07 05:22:00;;;;;;;8.15;4.05;;;;;;;-4.12;88.79;101175.84;5588913;31;34071;-68
2022/01/07 05:25:04;;;;;;;11.40;4.12;;;;;;;-4.19;90.01;101181.28;5588898;31;34215;-68
2022/01/07 05:28:07;;;;;;;8.95;4.30;;;;;;;-3.98;89.55;101173.59;5588749;31;33946;-67
2022/01/07 05:31:10;;;;;;;10.00;4.20;;;;;;;-3.93;88.63;101180.34;5588681;31;35191;-66
2022/01/07 05:34:13;;;;;;;6.43;3.58;;;;;;;-3.81;88.14;101182.47;5589044;31;34311;-67
2022/01/07 05:37:16;;;;;;;10.25;4.78;;;;;;;-3.70;86.87;101182.91;5588712;31;34356;-66
2022/01/07 05:40:19;;;;;;;14.38;4.28;;;;;;;-3.62;86.44;101180.88;5588327;31;34010;-67
2022/01/07 05:43:22;;;;;;;9.93;3.90;;;;;;;-3.75;86.36;101190.88;5589767;31;34336;-67
2022/01/07 05:46:25;;;;;;;9.63;3.80;;;;;;;-3.59;86.12;101189.41;5590862;31;34041;-67
2022/01/07 05:49:29;;;;;;;12.10;3.80;;;;;;;-3.73;87.23;101198.59;5591059;31;34612;-67
2022/01/07 05:52:31;;;;;;;9.13;4.10;;;;;;;-3.66;86.97;101198.28;5577229;31;34366;-68
2022/01/07 05:55:34;;;;;;;7.22;3.80;;;;;;;-3.84;86.91;101186.03;5590784;31;34895;-67
2022/01/07 05:58:36;;;;;;;8.50;4.05;;;;;;;-3.63;87.35;101197.34;5590099;31;33902;-67
2022/01/07 06:01:39;;;;;;;12.95;4.37;;;;;;;-3.83;87.69;101205.03;5590093;31;33894;-67
2022/01/07 06:04:42;;;;;;;8.82;4.20;;;;;;;-3.92;88.85;101202.78;5590918;31;34415;-66
2022/01/07 06:07:46;;;;;;;9.60;4.20;;;;;;;-3.76;88.31;101207.31;5590037;31;34813;-68
2022/01/07 06:10:48;;;;;;;11.18;4.00;;;;;;;-3.66;88.02;101205.22;5590484;31;34633;-68
2022/01/07 06:13:51;;;;;;;13.90;4.65;;;;;;;-3.94;88.77;101200.22;5590685;31;34380;-68
2022/01/07 06:16:54;;;;;;;9.05;4.22;;;;;;;-4.02;90.00;101207.44;5590668;31;33991;-69
2022/01/07 06:19:57;;;;;;;10.82;4.70;;;;;;;-4.14;90.05;101216.50;5590582;31;34017;-68
2022/01/07 06:23:00;;;;;;;17.60;5.15;;;;;;;-4.04;89.85;101212.66;5590836;31;34080;-68
2022/01/07 06:26:02;;;;;;;10.75;5.18;;;;;;;-4.01;90.37;101211.69;5590097;31;35517;-70
2022/01/07 06:29:05;;;;;;;10.55;4.20;;;;;;;-4.22;91.33;101215.94;5589641;31;33880;-67
2022/01/07 06:32:09;;;;;;;9.75;4.30;;;;;;;-4.28;92.17;101223.91;5590306;31;34786;-67
2022/01/07 06:35:13;;;;;;;10.82;4.68;;;;;;;-4.40;92.26;101226.91;5589704;31;33691;-68
2022/01/07 06:38:16;;;;;;;11.35;4.85;;;;;;;-4.42;92.60;101231.31;5589954;31;34630;-69
2022/01/07 06:41:18;;;;;;;8.77;4.68;;;;;;;-4.57;93.80;101237.84;5590388;31;34022;-68
2022/01/07 06:44:21;;;;;;;13.30;5.12;;;;;;;-4.59;94.17;101249.12;5590216;31;34698;-69
2022/01/07 06:47:24;;;;;;;15.70;5.50;;;;;;;-4.57;94.46;101242.19;5590112;31;35094;-69
2022/01/07 06:50:27;;;;;;;12.73;5.05;;;;;;;-4.57;94.65;101249.94;5590209;31;33940;-69
2022/01/07 06:53:30;;;;;;;11.45;5.47;;;;;;;-4.46;94.60;101253.03;5589761;31;34204;-69
2022/01/07 06:56:33;;;;;;;10.43;5.40;;;;;;;-4.46;94.70;101245.25;5589900;31;34627;-69
2022/01/07 06:59:36;;;;;;;13.32;5.50;;;;;;;-4.47;95.18;101252.19;5588800;31;33955;-69
2022/01/07 07:02:39;;;;;;;13.32;4.53;;;;;;;-4.19;95.15;101254.66;5590111;31;34383;-68
2022/01/07 07:05:43;;;;;;;9.45;4.43;;;;;;;-4.18;94.98;101248.59;5589418;31;34413;-68
2022/01/07 07:08:46;;;;;;;10.40;4.53;;;;;;;-4.18;95.38;101250.34;5589986;31;34289;-69
2022/01/07 07:11:49;;;;;;;18.25;4.97;;;;;;;-4.09;95.29;101250.00;5590461;31;34379;-68
2022/01/07 07:14:51;;;;;;;12.25;5.40;;;;;;;-3.80;94.70;101256.75;5589860;31;34560;-68
2022/01/07 07:17:54;;;;;;;16.05;5.87;;;;;;;-3.78;94.67;101257.53;5589965;31;34634;-69
2022/01/07 07:20:58;;;;;;;12.82;5.60;;;;;;;-3.82;94.68;101261.13;5588800;31;34007;-69
2022/01/07 07:24:03;;;;;;;14.55;5.72;;;;;;;-3.83;95.42;101260.31;5588474;31;34423;-69
2022/01/07 07:27:05;;;;;;;10.48;5.47;;;;;;;-3.63;94.47;101262.19;5589777;31;34425;-68
2022/01/07 07:30:11;;;;;;;16.83;5.80;;;;;;;-3.56;94.75;101255.84;5589732;31;33958;-69
2022/01/07 07:36:31;;;;;;;12.48;5.45;;;;;;;-3.25;93.85;101258.97;5589831;31;34270;-68
2022/01/07 07:39:34;;;;;;;15.25;5.60;;;;;;;-3.33;93.80;101258.41;5589554;31;33882;-69
2022/01/07 07:42:39;;;;;;;18.10;6.78;;;;;;;-3.25;93.67;101264.19;5590068;31;34698;-69
2022/01/07 07:45:42;;;;;;;15.38;6.12;;;;;;;-3.25;93.64;101253.78;5590116;31;34614;-69
2022/01/07 07:48:46;;;;;;;16.75;6.12;;;;;;;-3.24;93.67;101254.63;5589940;31;34011;-68
2022/01/07 07:51:50;;;;;;;19.37;7.75;;;;;;;-2.92;92.00;101256.81;5590040;31;33977;-68
2022/01/07 07:54:53;;;;;;;13.70;6.28;;;;;;;-3.00;91.70;101258.03;5590284;31;34048;-69
2022/01/07 07:57:55;;;;;;;18.90;6.12;;;;;;;-3.04;92.14;101266.81;5589548;31;34777;-68
2022/01/07 08:00:58;;;;;;;15.75;6.37;;;;;;;-2.97;91.31;101263.94;5589093;31;33963;-68
2022/01/07 08:04:01;;;;;;;14.57;6.60;;;;;;;-2.90;91.79;101267.13;5589072;31;33966;-69
2022/01/07 08:07:04;;;;;;;13.98;6.12;;;;;;;-2.75;91.65;101269.94;5588850;31;34641;-68
2022/01/07 08:10:08;;;;;;;12.37;5.62;;;;;;;-2.72;91.15;101272.44;5589772;31;33950;-68
2022/01/07 08:16:13;;;;;;;13.90;6.05;;;;;;;-2.87;91.62;101267.84;5589346;31;34372;-68
2022/01/07 08:19:16;;;;;;;12.73;6.40;;;;;;;-2.84;91.81;101277.25;5589695;31;34121;-68
2022/01/07 08:22:19;;;;;;;12.07;5.32;;;;;;;-2.73;91.32;101278.53;5589724;31;34694;-68
2022/01/07 08:25:24;;;;;;;12.65;6.03;;;;;;;-2.46;89.44;101273.97;5589642;31;34624;-69
2022/01/07 08:28:32;;;;;;;17.40;6.32;;;;;;;-2.53;88.77;101288.13;5588650;31;34084;-68
2022/01/07 08:34:53;;;;;;;13.80;6.28;;;;;;;-2.55;89.47;101281.28;5589528;31;33935;-68
2022/01/07 08:37:56;;;;;;;15.35;5.75;;;;;;;-2.36;87.97;101290.00;5589395;31;33866;-69
2022/01/07 08:40:59;;;;;;;17.80;6.80;;;;;;;-2.16;88.18;101284.81;5589293;31;33971;-69
2022/01/07 08:44:02;;;;;;;10.27;4.78;;;;;;;-2.17;87.25;101285.72;5589456;31;33869;-68
2022/01/07 08:47:05;;;;;;;11.40;5.75;;;;;;;-2.02;84.85;101282.47;5589519;31;33872;-68
2022/01/07 08:50:08;;;;;;;13.75;5.65;;;;;;;-2.03;84.99;101279.97;5589669;31;34801;-69
2022/01/07 08:53:12;;;;;;;19.62;5.93;;;;;;;-1.97;84.75;101288.31;5589338;31;34622;-69
2022/01/07 08:56:17;;;;;;;12.80;5.32;;;;;;;-2.01;84.49;101289.38;5589371;31;34036;-69
2022/01/07 08:59:21;;;;;;;10.68;5.40;;;;;;;-2.08;84.38;101290.53;5589219;31;34131;-68
2022/01/07 09:02:23;;;;;;;14.63;5.20;;;;;;;-2.06;84.89;101285.28;5589301;31;33984;-69
2022/01/07 09:05:27;;;;;;;14.93;5.45;;;;;;;-2.05;83.35;101293.03;5589394;31;34564;-68
2022/01/07 09:08:30;;;;;;;9.73;4.47;;;;;;;-1.93;82.80;101287.28;5588382;31;34335;-68
2022/01/07 09:11:33;;;;;;;13.65;4.80;;;;;;;-1.85;77.65;101284.37;5589265;31;33946;-68
2022/01/07 09:14:36;;;;;;;10.77;4.82;;;;;;;-1.74;78.44;101282.13;5589020;31;34166;-68
2022/01/07 09:17:40;;;;;;;11.93;5.00;;;;;;;-1.64;78.10;101278.19;5589074;31;34583;-68
2022/01/07 09:20:44;;;;;;;12.15;4.70;;;;;;;-1.65;76.68;101268.72;5588274;31;34005;-68
2022/01/07 09:23:48;;;;;;;11.32;4.90;;;;;;;-1.67;76.44;101259.28;5588544;31;34526;-68
2022/01/07 09:26:50;;;;;;;13.10;5.30;;;;;;;-1.64;76.42;101269.53;5588847;31;33949;-68
2022/01/07 09:29:53;;;;;;;12.02;5.43;;;;;;;-1.27;73.49;101258.31;5589134;31;35011;-68
2022/01/07 09:32:55;;;;;;;11.80;4.68;;;;;;;-1.12;74.84;101252.41;5588756;31;33909;-68
2022/01/07 09:35:58;;;;;;;13.10;5.00;;;;;;;-0.99;72.81;101253.50;5588759;31;33887;-68
2022/01/07 09:39:01;;;;;;;10.90;4.93;;;;;;;-0.97;71.15;101255.09;5587669;31;34009;-68
2022/01/07 09:42:05;;;;;;;12.73;4.80;;;;;;;-1.04;72.32;101245.91;5588762;31;34608;-68
2022/01/07 09:45:07;;;;;;;11.35;5.00;;;;;;;-0.95;72.75;101245.47;5588572;31;33913;-68
2022/01/07 09:48:10;;;;;;;12.90;4.43;;;;;;;-0.83;71.04;101244.03;5588482;31;35215;-68
2022/01/07 09:51:14;;;;;;;12.55;4.35;;;;;;;-0.38;67.85;101234.84;5588051;31;34000;-68
2022/01/07 09:54:17;;;;;;;11.10;4.30;;;;;;;-0.12;66.29;101232.63;5588601;31;34033;-68
2022/01/07 09:57:20;;;;;;;10.50;4.68;;;;;;;0.06;62.85;101228.19;5588377;31;33949;-68
2022/01/07 10:00:23;;;;;;;8.27;4.05;;;;;;;0.18;63.49;101216.28;5587888;31;34931;-68
2022/01/07 10:03:36;;;;;;;14.50;4.35;;;;;;;0.31;61.78;101215.53;5588271;31;33913;-68
2022/01/07 10:06:38;;;;;;;8.95;4.00;;;;;;;0.25;61.14;101215.00;5588349;31;33989;-68
2022/01/07 10:10:06;;;;;;;10.63;4.40;;;;;;;0.36;60.97;101210.06;5588159;31;34635;-68
2022/01/07 10:13:09;;;;;;;11.15;3.80;;;;;;;0.21;61.73;101211.75;5587229;31;34605;-68
2022/01/07 10:16:20;;;;;;;10.90;3.70;;;;;;;0.16;62.57;101198.09;5588019;31;35307;-68
2022/01/07 10:19:37;;;;;;;10.02;4.25;;;;;;;0.47;61.96;101206.87;5586480;31;34061;-68
2022/01/07 10:22:54;;;;;;;10.60;3.90;;;;;;;0.63;60.60;101198.12;5587555;31;34315;-68
2022/01/07 10:25:57;;;;;;;12.95;3.65;;;;;;;0.80;60.55;101192.81;5587736;31;34026;-68
2022/01/07 10:29:00;;;;;;;8.13;3.87;;;;;;;0.72;60.52;101188.97;5588490;31;34059;-68
2022/01/07 10:32:18;;;;;;;5.55;3.12;;;;;;;0.86;60.40;101182.03;5589855;31;34061;-68
2022/01/07 10:35:26;;;;;;;7.30;2.92;;;;;;;0.84;59.14;101185.63;5590637;31;34590;-69
2022/01/07 10:38:29;;;;;;;7.80;2.55;;;;;;;0.87;58.23;101169.81;5590633;31;34776;-69
2022/01/07 10:41:32;;;;;;;7.55;3.60;;;;;;;0.90;58.26;101166.19;5590440;31;35407;-68
2022/01/07 10:44:59;;;;;;;5.47;2.85;;;;;;;0.83;59.38;101163.06;5590592;31;34020;-67
2022/01/07 10:48:02;;;;;;;6.35;2.90;;;;;;;0.80;58.40;101158.87;5593602;31;34104;-68
2022/01/07 10:51:07;;;;;;;7.50;3.08;;;;;;;0.82;58.29;101148.34;5590107;31;34582;-68
2022/01/07 10:54:16;;;;;;;9.52;3.25;;;;;;;0.82;59.66;101153.56;5589568;31;34585;-68
2022/01/07 10:57:21;;;;;;;6.75;3.10;;;;;;;0.77;58.35;101142.53;5590157;31;33998;-68
2022/01/07 11:00:27;;;;;;;9.50;3.50;;;;;;;0.91;58.02;101137.38;5590393;31;33993;-68
2022/01/07 11:03:33;;;;;;;6.70;3.37;;;;;;;0.98;58.23;101135.22;5590696;31;34316;-68
2022/01/07 11:06:38;;;;;;;8.77;3.33;;;;;;;0.97;58.10;101134.38;5590323;31;34153;-66
2022/01/07 11:09:41;;;;;;;8.88;3.25;;;;;;;1.01;57.43;101137.69;5590225;31;33933;-68
2022/01/07 11:12:44;;;;;;;9.35;3.00;;;;;;;1.04;58.29;101134.87;5590507;31;34675;-68
2022/01/07 11:15:46;;;;;;;8.35;2.90;;;;;;;1.03;56.49;101127.97;5589816;31;33941;-68
2022/01/07 11:18:49;;;;;;;5.90;2.72;;;;;;;1.18;56.77;101133.16;5590487;31;33951;-68
2022/01/07 11:21:54;;;;;;;8.55;2.80;;;;;;;1.17;55.96;101128.00;5590187;31;34065;-68
2022/01/07 11:24:59;;;;;;;8.45;2.50;;;;;;;1.17;56.20;101128.84;5590023;31;34309;-68
2022/01/07 11:28:02;;;;;;;4.05;2.08;;;;;;;1.25;54.49;101121.41;5590417;31;34732;-68
2022/01/07 11:31:15;;;;;;;5.10;2.22;;;;;;;1.22;54.47;101108.50;5589248;31;34844;-68
2022/01/07 11:34:23;;;;;;;4.00;2.45;;;;;;;1.20;55.25;101109.53;5589939;31;34257;-67
2022/01/07 11:37:36;;;;;;;5.35;2.70;;;;;;;1.09;55.09;101101.47;5589797;31;33983;-67
2022/01/07 11:40:39;;;;;;;7.53;2.67;;;;;;;1.12;54.60;101103.91;5589804;31;34701;-68
2022/01/07 11:43:44;;;;;;;4.82;2.50;;;;;;;1.04;55.96;101098.28;5590271;31;33929;-68
2022/01/07 11:46:47;;;;;;;7.12;2.72;;;;;;;1.13;55.00;101095.13;5589797;31;34194;-68
2022/01/07 11:50:06;;;;;;;5.30;2.95;;;;;;;1.17;54.49;101084.41;5589874;31;34350;-68
2022/01/07 11:53:09;;;;;;;6.15;2.70;;;;;;;1.41;54.60;101076.03;5589894;31;34068;-68
2022/01/07 11:56:16;;;;;;;8.23;2.67;;;;;;;1.41;52.74;101087.34;5588941;31;33864;-68
2022/01/07 11:59:23;;;;;;;8.40;2.78;;;;;;;1.43;53.40;101077.63;5590630;31;34052;-65
2022/01/07 12:02:26;;;;;;;4.93;2.60;;;;;;;1.43;53.15;101082.88;5589816;31;33947;-68
2022/01/07 12:05:32;;;;;;;6.78;3.08;;;;;;;1.43;52.95;101068.94;5589590;31;34914;-68
2022/01/07 12:09:06;;;;;;;5.18;2.50;;;;;;;1.54;52.29;101080.47;5588866;31;34616;-68
2022/01/07 12:12:11;;;;;;;8.15;3.28;;;;;;;1.54;53.50;101067.37;5589770;31;34035;-68
2022/01/07 12:15:13;;;;;;;7.80;2.75;;;;;;;1.53;52.97;101065.69;5589485;31;33937;-67
2022/01/07 12:18:16;;;;;;;5.28;2.55;;;;;;;1.92;51.52;101066.78;5589529;31;33916;-68
2022/01/07 12:21:19;;;;;;;6.43;3.10;;;;;;;2.01;50.53;101067.03;5589635;31;34637;-68
2022/01/07 12:24:25;;;;;;;6.80;2.65;;;;;;;2.26;49.57;101057.63;5589776;31;35137;-68
2022/01/07 12:27:28;;;;;;;5.75;2.72;;;;;;;2.23;49.12;101065.69;5589217;31;34088;-69
2022/01/07 12:30:31;;;;;;;5.82;2.45;;;;;;;2.07;48.59;101057.97;5589456;31;34070;-69
2022/01/07 12:33:34;;;;;;;6.12;2.83;;;;;;;2.17;48.56;101046.81;5588671;31;33991;-68
2022/01/07 12:36:36;;;;;;;5.90;2.92;;;;;;;2.37;49.25;101050.75;5589283;31;34056;-67
2022/01/07 12:39:45;;;;;;;10.75;3.05;;;;;;;2.60;49.97;101034.41;5589693;31;34099;-68
2022/01/07 12:42:47;;;;;;;9.23;2.90;;;;;;;2.56;49.54;101038.16;5589786;31;35195;-68
2022/01/07 12:45:59;;;;;;;6.10;3.15;;;;;;;2.73;49.82;101037.03;5589402;31;34014;-66
2022/01/07 12:49:02;;;;;;;8.15;3.15;;;;;;;3.02;48.66;101027.22;5589370;31;34722;-68
2022/01/07 12:52:09;;;;;;;5.93;2.83;;;;;;;2.84;47.67;101029.31;5588660;31;34337;-66
2022/01/07 12:55:18;;;;;;;12.82;2.87;;;;;;;2.76;47.73;101033.41;5589257;31;33960;-66
2022/01/07 12:58:28;;;;;;;5.00;2.87;;;;;;;3.22;46.59;101012.75;5589336;31;34300;-66
2022/01/07 13:01:31;;;;;;;5.93;3.03;;;;;;;2.66;49.05;101027.94;5589357;31;33992;-66
2022/01/07 13:04:34;;;;;;;8.82;3.05;;;;;;;2.63;48.38;101021.09;5589216;31;34103;-66
2022/01/07 13:07:43;;;;;;;5.62;3.17;;;;;;;2.11;50.02;101012.34;5588712;31;34116;-66
2022/01/07 13:10:58;;;;;;;8.98;3.05;;;;;;;2.01;51.29;101014.72;5589364;31;33170;-66
2022/01/07 13:14:02;;;;;;;7.35;3.35;;;;;;;2.06;50.50;101003.94;5588587;31;34005;-66
2022/01/07 13:17:10;;;;;;;5.87;3.20;;;;;;;1.99;50.14;101000.88;5588821;31;34355;-66
2022/01/07 13:20:27;;;;;;;6.53;2.95;;;;;;;1.79;51.22;101003.94;5588956;31;34577;-66
2022/01/07 13:23:34;;;;;;;9.27;3.08;;;;;;;1.60;52.29;101004.22;5589440;31;34669;-66
2022/01/07 13:26:38;;;;;;;8.05;2.97;;;;;;;1.54;52.79;100994.16;5588723;31;33991;-66
2022/01/07 13:29:51;;;;;;;4.70;2.75;;;;;;;1.55;51.98;100987.16;5589257;31;34615;-65
2022/01/07 13:33:11;;;;;;;8.23;3.10;;;;;;;1.51;52.20;100988.25;5588720;31;34661;-66
2022/01/07 13:36:44;;;;;;;6.00;3.60;;;;;;;1.52;52.93;100995.19;5588808;31;34645;-66
2022/01/07 13:39:51;;;;;;;6.62;3.20;;;;;;;1.45;54.32;100986.91;5588354;31;34490;-66
2022/01/07 13:43:07;;;;;;;6.62;3.33;;;;;;;1.26;52.75;100989.78;5588968;31;33926;-67
2022/01/07 13:46:14;;;;;;;6.75;2.97;;;;;;;1.34;53.60;100980.63;5587972;31;33947;-66
2022/01/07 13:49:17;;;;;;;6.53;3.45;;;;;;;1.16;52.91;100985.22;5588442;31;34013;-66
2022/01/07 13:52:29;;;;;;;7.15;3.40;;;;;;;1.05;53.27;100977.19;5587393;31;34650;-66
2022/01/07 13:55:36;;;;;;;7.22;2.90;;;;;;;1.12;53.24;100970.62;5588397;31;34091;-66
2022/01/07 13:58:40;;;;;;;5.90;3.12;;;;;;;1.06;53.10;100966.66;5587538;31;34309;-66
2022/01/07 14:01:58;;;;;;;6.82;3.28;;;;;;;0.99;53.69;100967.94;5587531;31;34289;-65
2022/01/07 14:05:11;;;;;;;8.43;3.00;;;;;;;1.20;52.42;100971.03;5589806;31;34075;-66
2022/01/07 14:08:20;;;;;;;6.87;3.03;;;;;;;1.33;52.44;100964.12;5590843;31;35152;-67
2022/01/07 14:11:23;;;;;;;9.43;3.15;;;;;;;1.33;52.05;100965.87;5590932;31;34827;-66
2022/01/07 14:14:35;;;;;;;6.85;2.80;;;;;;;1.22;52.75;100959.53;5590309;31;33846;-66
2022/01/07 14:17:47;;;;;;;7.22;3.00;;;;;;;1.14;53.61;100971.41;5590627;31;34532;-66
2022/01/07 14:20:52;;;;;;;5.93;3.00;;;;;;;1.07;52.48;100968.31;5589905;31;34538;-67
2022/01/07 14:23:55;;;;;;;9.98;3.50;;;;;;;0.84;54.22;100958.41;5577120;31;34022;-66
2022/01/07 14:27:00;;;;;;;8.23;2.70;;;;;;;0.64;54.29;100946.53;5590290;31;34644;-65